sensor_id;sensor_type;location;lat;lon;timestamp;temperature;humidity
14893;DHT22;7538;53.626;9.906;2022-08-07T00:00:27;13.50;99.90
14893;DHT22;7538;53.626;9.906;2022-08-07T00:22:38;13.20;99.90
14893;DHT22;7538;53.626;9.906;2022-08-07T00:39:52;13.00;99.90
14893;DHT22;7538;53.626;9.906;2022-08-07T00:57:04;12.90;99.90
14893;DHT22;7538;53.626;9.906;2022-08-07T01:51:18;12.50;99.90
14893;DHT22;7538;53.626;9.906;2022-08-07T02:30:58;12.20;99.90
14893;DHT22;7538;53.626;9.906;2022-08-07T05:44:06;14.90;99.90
14893;DHT22;7538;53.626;9.906;2022-08-07T05:51:31;15.50;99.90
14893;DHT22;7538;53.626;9.906;2022-08-07T05:53:59;15.80;99.90
14893;DHT22;7538;53.626;9.906;2022-08-07T05:56:27;16.50;99.90
14893;DHT22;7538;53.626;9.906;2022-08-07T05:58:54;17.30;99.90
14893;DHT22;7538;53.626;9.906;2022-08-07T06:01:22;18.20;99.90
14893;DHT22;7538;53.626;9.906;2022-08-07T06:03:53;19.60;99.90
14893;DHT22;7538;53.626;9.906;2022-08-07T06:06:21;21.40;99.90
14893;DHT22;7538;53.626;9.906;2022-08-07T06:08:48;21.40;99.90
14893;DHT22;7538;53.626;9.906;2022-08-07T06:11:17;23.30;96.30
14893;DHT22;7538;53.626;9.906;2022-08-07T06:13:44;25.00;91.90
14893;DHT22;7538;53.626;9.906;2022-08-07T06:16:12;26.60;86.60
14893;DHT22;7538;53.626;9.906;2022-08-07T06:18:40;28.00;77.80
14893;DHT22;7538;53.626;9.906;2022-08-07T06:21:08;29.30;73.50
14893;DHT22;7538;53.626;9.906;2022-08-07T06:23:36;30.50;68.30
14893;DHT22;7538;53.626;9.906;2022-08-07T06:26:05;31.60;62.00
14893;DHT22;7538;53.626;9.906;2022-08-07T06:28:47;32.30;58.90
14893;DHT22;7538;53.626;9.906;2022-08-07T06:31:14;33.10;54.80
14893;DHT22;7538;53.626;9.906;2022-08-07T06:33:41;33.50;52.50
14893;DHT22;7538;53.626;9.906;2022-08-07T06:36:09;34.00;49.90
14893;DHT22;7538;53.626;9.906;2022-08-07T06:38:36;34.20;48.40
14893;DHT22;7538;53.626;9.906;2022-08-07T06:41:06;34.30;47.30
14893;DHT22;7538;53.626;9.906;2022-08-07T06:43:35;34.40;47.10
14893;DHT22;7538;53.626;9.906;2022-08-07T06:46:03;34.70;46.70
14893;DHT22;7538;53.626;9.906;2022-08-07T06:48:30;34.90;45.40
14893;DHT22;7538;53.626;9.906;2022-08-07T06:50:59;35.30;45.20
14893;DHT22;7538;53.626;9.906;2022-08-07T06:53:27;35.70;44.20
14893;DHT22;7538;53.626;9.906;2022-08-07T06:55:55;35.90;43.00
14893;DHT22;7538;53.626;9.906;2022-08-07T06:58:23;36.10;42.80
14893;DHT22;7538;53.626;9.906;2022-08-07T07:00:52;36.40;42.90
14893;DHT22;7538;53.626;9.906;2022-08-07T07:03:19;36.80;41.00
14893;DHT22;7538;53.626;9.906;2022-08-07T07:05:47;37.10;40.10
14893;DHT22;7538;53.626;9.906;2022-08-07T07:08:13;37.20;40.40
14893;DHT22;7538;53.626;9.906;2022-08-07T07:10:41;37.20;39.10
14893;DHT22;7538;53.626;9.906;2022-08-07T07:13:15;37.30;38.90
14893;DHT22;7538;53.626;9.906;2022-08-07T07:15:45;37.10;38.50
14893;DHT22;7538;53.626;9.906;2022-08-07T07:18:18;37.00;38.50
14893;DHT22;7538;53.626;9.906;2022-08-07T07:20:51;36.90;37.80
14893;DHT22;7538;53.626;9.906;2022-08-07T07:23:19;37.00;37.70
14893;DHT22;7538;53.626;9.906;2022-08-07T07:25:48;37.10;37.60
14893;DHT22;7538;53.626;9.906;2022-08-07T07:28:20;36.80;37.90
14893;DHT22;7538;53.626;9.906;2022-08-07T07:30:50;37.10;38.10
14893;DHT22;7538;53.626;9.906;2022-08-07T07:33:21;37.40;37.10
14893;DHT22;7538;53.626;9.906;2022-08-07T07:35:50;37.20;37.00
14893;DHT22;7538;53.626;9.906;2022-08-07T07:38:18;37.20;36.90
14893;DHT22;7538;53.626;9.906;2022-08-07T07:40:47;37.20;36.50
14893;DHT22;7538;53.626;9.906;2022-08-07T07:43:15;37.30;36.90
14893;DHT22;7538;53.626;9.906;2022-08-07T07:45:44;37.40;35.90
14893;DHT22;7538;53.626;9.906;2022-08-07T07:48:16;37.60;35.70
14893;DHT22;7538;53.626;9.906;2022-08-07T07:50:47;38.10;35.80
14893;DHT22;7538;53.626;9.906;2022-08-07T07:53:19;38.60;34.70
14893;DHT22;7538;53.626;9.906;2022-08-07T07:55:47;38.70;34.40
14893;DHT22;7538;53.626;9.906;2022-08-07T07:58:15;39.10;34.00
14893;DHT22;7538;53.626;9.906;2022-08-07T08:00:44;39.40;33.50
14893;DHT22;7538;53.626;9.906;2022-08-07T08:03:13;38.90;33.20
14893;DHT22;7538;53.626;9.906;2022-08-07T08:05:42;38.10;33.20
14893;DHT22;7538;53.626;9.906;2022-08-07T08:08:11;37.40;34.30
14893;DHT22;7538;53.626;9.906;2022-08-07T08:10:39;37.30;35.10
14893;DHT22;7538;53.626;9.906;2022-08-07T08:13:08;37.60;34.80
14893;DHT22;7538;53.626;9.906;2022-08-07T08:15:38;37.50;35.50
14893;DHT22;7538;53.626;9.906;2022-08-07T08:18:08;37.70;34.40
14893;DHT22;7538;53.626;9.906;2022-08-07T08:20:37;37.60;34.40
14893;DHT22;7538;53.626;9.906;2022-08-07T08:23:07;36.50;34.30
14893;DHT22;7538;53.626;9.906;2022-08-07T08:25:55;36.10;34.90
14893;DHT22;7538;53.626;9.906;2022-08-07T08:28:49;35.90;35.50
14893;DHT22;7538;53.626;9.906;2022-08-07T08:31:22;36.60;35.20
14893;DHT22;7538;53.626;9.906;2022-08-07T08:33:51;37.40;34.40
14893;DHT22;7538;53.626;9.906;2022-08-07T08:36:20;38.00;33.60
14893;DHT22;7538;53.626;9.906;2022-08-07T08:38:49;38.20;32.80
14893;DHT22;7538;53.626;9.906;2022-08-07T08:41:23;38.10;32.80
14893;DHT22;7538;53.626;9.906;2022-08-07T08:43:58;37.60;33.00
14893;DHT22;7538;53.626;9.906;2022-08-07T08:46:36;37.70;33.60
14893;DHT22;7538;53.626;9.906;2022-08-07T08:49:15;38.00;33.50
14893;DHT22;7538;53.626;9.906;2022-08-07T08:51:50;37.70;32.60
14893;DHT22;7538;53.626;9.906;2022-08-07T08:54:23;37.20;33.10
14893;DHT22;7538;53.626;9.906;2022-08-07T08:56:53;37.00;33.30
14893;DHT22;7538;53.626;9.906;2022-08-07T08:59:26;37.00;34.00
14893;DHT22;7538;53.626;9.906;2022-08-07T09:01:59;37.30;33.70
14893;DHT22;7538;53.626;9.906;2022-08-07T09:04:40;37.60;34.00
14893;DHT22;7538;53.626;9.906;2022-08-07T09:07:15;38.00;32.60
14893;DHT22;7538;53.626;9.906;2022-08-07T09:09:54;37.70;32.80
14893;DHT22;7538;53.626;9.906;2022-08-07T09:12:42;37.80;33.10
14893;DHT22;7538;53.626;9.906;2022-08-07T09:15:30;37.70;33.40
14893;DHT22;7538;53.626;9.906;2022-08-07T09:21:05;35.00;34.00
14893;DHT22;7538;53.626;9.906;2022-08-07T09:23:46;34.10;34.30
14893;DHT22;7538;53.626;9.906;2022-08-07T09:26:23;34.20;35.30
14893;DHT22;7538;53.626;9.906;2022-08-07T09:28:58;34.90;35.10
14893;DHT22;7538;53.626;9.906;2022-08-07T09:31:35;35.80;34.30
14893;DHT22;7538;53.626;9.906;2022-08-07T09:34:12;36.00;33.90
14893;DHT22;7538;53.626;9.906;2022-08-07T09:36:56;36.40;34.10
14893;DHT22;7538;53.626;9.906;2022-08-07T09:39:34;36.50;33.50
14893;DHT22;7538;53.626;9.906;2022-08-07T09:42:10;35.90;34.40
14893;DHT22;7538;53.626;9.906;2022-08-07T09:44:48;35.70;34.40
14893;DHT22;7538;53.626;9.906;2022-08-07T09:47:29;35.80;34.70
14893;DHT22;7538;53.626;9.906;2022-08-07T09:50:05;36.20;33.80
14893;DHT22;7538;53.626;9.906;2022-08-07T09:52:39;36.50;34.00
14893;DHT22;7538;53.626;9.906;2022-08-07T09:55:13;36.60;33.90
14893;DHT22;7538;53.626;9.906;2022-08-07T09:58:19;36.30;34.50
14893;DHT22;7538;53.626;9.906;2022-08-07T10:01:02;36.50;34.60
14893;DHT22;7538;53.626;9.906;2022-08-07T10:03:47;32.30;31.30
14893;DHT22;7538;53.626;9.906;2022-08-07T10:06:36;35.60;34.40
14893;DHT22;7538;53.626;9.906;2022-08-07T10:09:17;35.50;34.40
14893;DHT22;7538;53.626;9.906;2022-08-07T10:12:04;35.40;34.40
14893;DHT22;7538;53.626;9.906;2022-08-07T10:17:55;34.80;35.20
14893;DHT22;7538;53.626;9.906;2022-08-07T10:20:31;34.10;34.40
14893;DHT22;7538;53.626;9.906;2022-08-07T10:23:31;34.10;35.00
14893;DHT22;7538;53.626;9.906;2022-08-07T10:26:17;33.20;35.80
14893;DHT22;7538;53.626;9.906;2022-08-07T10:29:02;33.00;36.20
14893;DHT22;7538;53.626;9.906;2022-08-07T10:31:46;32.70;36.30
14893;DHT22;7538;53.626;9.906;2022-08-07T10:34:29;32.30;36.40
14893;DHT22;7538;53.626;9.906;2022-08-07T10:37:12;31.60;37.30
14893;DHT22;7538;53.626;9.906;2022-08-07T10:39:55;30.70;37.90
14893;DHT22;7538;53.626;9.906;2022-08-07T10:42:33;35.00;42.20
14893;DHT22;7538;53.626;9.906;2022-08-07T10:45:17;30.50;39.30
14893;DHT22;7538;53.626;9.906;2022-08-07T10:47:57;30.60;39.00
14893;DHT22;7538;53.626;9.906;2022-08-07T10:50:30;30.60;39.10
14893;DHT22;7538;53.626;9.906;2022-08-07T10:53:04;30.30;39.40
14893;DHT22;7538;53.626;9.906;2022-08-07T10:55:41;29.50;39.80
14893;DHT22;7538;53.626;9.906;2022-08-07T10:58:17;28.60;40.70
14893;DHT22;7538;53.626;9.906;2022-08-07T11:00:54;28.50;41.20
14893;DHT22;7538;53.626;9.906;2022-08-07T11:03:37;28.40;41.00
14893;DHT22;7538;53.626;9.906;2022-08-07T11:06:10;28.30;41.00
14893;DHT22;7538;53.626;9.906;2022-08-07T11:08:42;28.40;41.90
14893;DHT22;7538;53.626;9.906;2022-08-07T11:11:16;26.80;40.40
14893;DHT22;7538;53.626;9.906;2022-08-07T11:13:46;28.30;41.60
14893;DHT22;7538;53.626;9.906;2022-08-07T11:16:19;28.40;42.70
14893;DHT22;7538;53.626;9.906;2022-08-07T11:18:52;28.60;42.60
14893;DHT22;7538;53.626;9.906;2022-08-07T11:21:32;28.70;41.70
14893;DHT22;7538;53.626;9.906;2022-08-07T11:24:04;28.70;41.60
14893;DHT22;7538;53.626;9.906;2022-08-07T11:26:40;28.80;41.90
14893;DHT22;7538;53.626;9.906;2022-08-07T11:29:15;28.70;41.80
14893;DHT22;7538;53.626;9.906;2022-08-07T11:31:50;28.40;41.00
14893;DHT22;7538;53.626;9.906;2022-08-07T11:34:26;28.20;42.10
14893;DHT22;7538;53.626;9.906;2022-08-07T11:37:03;28.00;42.00
14893;DHT22;7538;53.626;9.906;2022-08-07T11:39:50;27.80;42.50
14893;DHT22;7538;53.626;9.906;2022-08-07T11:42:29;27.10;43.30
14893;DHT22;7538;53.626;9.906;2022-08-07T11:45:10;26.70;44.50
14893;DHT22;7538;53.626;9.906;2022-08-07T11:47:54;26.30;45.00
14893;DHT22;7538;53.626;9.906;2022-08-07T11:50:34;25.90;45.40
14893;DHT22;7538;53.626;9.906;2022-08-07T11:53:12;25.70;46.10
14893;DHT22;7538;53.626;9.906;2022-08-07T11:55:58;25.50;46.30
14893;DHT22;7538;53.626;9.906;2022-08-07T11:58:34;22.50;46.60
14893;DHT22;7538;53.626;9.906;2022-08-07T12:01:13;25.80;48.20
14893;DHT22;7538;53.626;9.906;2022-08-07T12:03:56;26.10;46.30
14893;DHT22;7538;53.626;9.906;2022-08-07T12:06:45;26.10;46.00
14893;DHT22;7538;53.626;9.906;2022-08-07T12:09:21;26.10;46.20
14893;DHT22;7538;53.626;9.906;2022-08-07T12:11:57;26.00;46.20
14893;DHT22;7538;53.626;9.906;2022-08-07T12:14:29;26.00;46.40
14893;DHT22;7538;53.626;9.906;2022-08-07T12:17:00;25.90;46.30
14893;DHT22;7538;53.626;9.906;2022-08-07T12:19:36;25.60;46.20
14893;DHT22;7538;53.626;9.906;2022-08-07T12:22:11;25.80;47.00
14893;DHT22;7538;53.626;9.906;2022-08-07T12:24:51;25.90;46.20
14893;DHT22;7538;53.626;9.906;2022-08-07T12:27:43;26.30;46.30
14893;DHT22;7538;53.626;9.906;2022-08-07T12:30:12;26.50;45.70
14893;DHT22;7538;53.626;9.906;2022-08-07T12:32:43;26.60;44.90
14893;DHT22;7538;53.626;9.906;2022-08-07T12:35:12;26.50;44.90
14893;DHT22;7538;53.626;9.906;2022-08-07T12:37:40;26.60;44.90
14893;DHT22;7538;53.626;9.906;2022-08-07T12:40:12;26.60;45.30
14893;DHT22;7538;53.626;9.906;2022-08-07T12:45:14;26.50;45.80
14893;DHT22;7538;53.626;9.906;2022-08-07T12:47:48;26.50;45.00
14893;DHT22;7538;53.626;9.906;2022-08-07T12:50:23;26.20;45.40
14893;DHT22;7538;53.626;9.906;2022-08-07T12:52:59;26.20;46.10
14893;DHT22;7538;53.626;9.906;2022-08-07T12:55:35;26.30;46.10
14893;DHT22;7538;53.626;9.906;2022-08-07T12:58:04;26.50;45.20
14893;DHT22;7538;53.626;9.906;2022-08-07T13:00:39;26.40;45.40
14893;DHT22;7538;53.626;9.906;2022-08-07T13:03:32;26.50;45.20
14893;DHT22;7538;53.626;9.906;2022-08-07T13:06:10;26.20;45.60
14893;DHT22;7538;53.626;9.906;2022-08-07T13:08:50;26.10;45.90
14893;DHT22;7538;53.626;9.906;2022-08-07T13:11:33;26.00;47.40
14893;DHT22;7538;53.626;9.906;2022-08-07T13:14:09;26.00;47.40
14893;DHT22;7538;53.626;9.906;2022-08-07T13:16:50;26.00;47.50
14893;DHT22;7538;53.626;9.906;2022-08-07T13:19:27;26.10;48.00
14893;DHT22;7538;53.626;9.906;2022-08-07T13:22:00;26.10;47.50
14893;DHT22;7538;53.626;9.906;2022-08-07T13:24:35;26.20;47.60
14893;DHT22;7538;53.626;9.906;2022-08-07T13:27:10;26.30;47.70
14893;DHT22;7538;53.626;9.906;2022-08-07T13:29:43;26.30;46.70
14893;DHT22;7538;53.626;9.906;2022-08-07T13:32:17;26.40;46.70
14893;DHT22;7538;53.626;9.906;2022-08-07T13:34:54;26.50;45.90
14893;DHT22;7538;53.626;9.906;2022-08-07T13:37:27;26.50;45.50
14893;DHT22;7538;53.626;9.906;2022-08-07T13:40:04;26.50;44.50
14893;DHT22;7538;53.626;9.906;2022-08-07T13:42:34;26.50;45.20
14893;DHT22;7538;53.626;9.906;2022-08-07T13:45:04;26.40;45.10
14893;DHT22;7538;53.626;9.906;2022-08-07T13:47:33;26.20;44.90
14893;DHT22;7538;53.626;9.906;2022-08-07T13:50:01;26.00;45.30
14893;DHT22;7538;53.626;9.906;2022-08-07T13:52:29;25.90;46.30
14893;DHT22;7538;53.626;9.906;2022-08-07T13:54:58;25.90;46.40
14893;DHT22;7538;53.626;9.906;2022-08-07T13:57:32;26.00;46.60
14893;DHT22;7538;53.626;9.906;2022-08-07T14:00:01;26.00;46.60
14893;DHT22;7538;53.626;9.906;2022-08-07T14:02:33;26.00;46.80
14893;DHT22;7538;53.626;9.906;2022-08-07T14:05:03;26.10;46.50
14893;DHT22;7538;53.626;9.906;2022-08-07T14:07:32;26.20;47.70
14893;DHT22;7538;53.626;9.906;2022-08-07T14:10:00;26.10;46.30
14893;DHT22;7538;53.626;9.906;2022-08-07T14:12:37;26.10;46.00
14893;DHT22;7538;53.626;9.906;2022-08-07T14:15:18;26.10;47.00
14893;DHT22;7538;53.626;9.906;2022-08-07T14:17:46;26.20;47.00
14893;DHT22;7538;53.626;9.906;2022-08-07T14:20:18;26.00;46.00
14893;DHT22;7538;53.626;9.906;2022-08-07T14:22:50;26.10;46.70
14893;DHT22;7538;53.626;9.906;2022-08-07T14:25:22;26.20;47.00
14893;DHT22;7538;53.626;9.906;2022-08-07T14:27:52;25.90;46.70
14893;DHT22;7538;53.626;9.906;2022-08-07T14:30:21;26.00;47.90
14893;DHT22;7538;53.626;9.906;2022-08-07T14:32:54;26.10;47.50
14893;DHT22;7538;53.626;9.906;2022-08-07T14:35:23;26.00;47.20
14893;DHT22;7538;53.626;9.906;2022-08-07T14:37:51;25.80;47.70
14893;DHT22;7538;53.626;9.906;2022-08-07T14:40:21;25.50;48.40
14893;DHT22;7538;53.626;9.906;2022-08-07T14:42:55;25.30;48.60
14893;DHT22;7538;53.626;9.906;2022-08-07T14:45:24;25.10;49.30
14893;DHT22;7538;53.626;9.906;2022-08-07T14:47:53;25.10;49.50
14893;DHT22;7538;53.626;9.906;2022-08-07T14:57:48;24.90;50.30
14893;DHT22;7538;53.626;9.906;2022-08-07T15:00:25;25.00;50.30
14893;DHT22;7538;53.626;9.906;2022-08-07T15:02:53;28.20;51.90
14893;DHT22;7538;53.626;9.906;2022-08-07T15:07:51;25.20;49.80
14893;DHT22;7538;53.626;9.906;2022-08-07T15:10:19;25.10;49.80
14893;DHT22;7538;53.626;9.906;2022-08-07T15:15:23;24.70;51.80
14893;DHT22;7538;53.626;9.906;2022-08-07T15:17:57;24.70;51.40
14893;DHT22;7538;53.626;9.906;2022-08-07T15:20:28;24.60;51.80
14893;DHT22;7538;53.626;9.906;2022-08-07T15:22:59;24.70;51.60
14893;DHT22;7538;53.626;9.906;2022-08-07T15:25:32;24.80;50.60
14893;DHT22;7538;53.626;9.906;2022-08-07T15:28:03;24.90;50.90
14893;DHT22;7538;53.626;9.906;2022-08-07T15:30:33;25.00;50.30
14893;DHT22;7538;53.626;9.906;2022-08-07T15:37:59;25.10;50.80
14893;DHT22;7538;53.626;9.906;2022-08-07T15:43:03;25.10;50.70
14893;DHT22;7538;53.626;9.906;2022-08-07T15:45:40;25.10;50.10
14893;DHT22;7538;53.626;9.906;2022-08-07T15:48:15;25.20;49.80
14893;DHT22;7538;53.626;9.906;2022-08-07T15:50:45;25.00;50.00
14893;DHT22;7538;53.626;9.906;2022-08-07T15:53:22;24.90;50.40
14893;DHT22;7538;53.626;9.906;2022-08-07T15:55:52;24.80;50.70
14893;DHT22;7538;53.626;9.906;2022-08-07T16:00:50;24.60;50.60
14893;DHT22;7538;53.626;9.906;2022-08-07T16:03:19;24.50;50.80
14893;DHT22;7538;53.626;9.906;2022-08-07T16:16:30;21.30;51.60
14893;DHT22;7538;53.626;9.906;2022-08-07T16:19:13;24.00;54.30
14893;DHT22;7538;53.626;9.906;2022-08-07T16:21:46;27.40;55.40
14893;DHT22;7538;53.626;9.906;2022-08-07T16:24:26;24.10;52.90
14893;DHT22;7538;53.626;9.906;2022-08-07T16:27:02;24.00;53.30
14893;DHT22;7538;53.626;9.906;2022-08-07T16:30:03;24.00;53.80
14893;DHT22;7538;53.626;9.906;2022-08-07T16:32:34;23.80;53.20
14893;DHT22;7538;53.626;9.906;2022-08-07T16:35:14;23.60;53.30
14893;DHT22;7538;53.626;9.906;2022-08-07T16:38:23;23.60;53.90
14893;DHT22;7538;53.626;9.906;2022-08-07T16:41:20;23.40;54.70
14893;DHT22;7538;53.626;9.906;2022-08-07T16:44:16;23.40;55.60
14893;DHT22;7538;53.626;9.906;2022-08-07T16:47:07;23.20;56.20
14893;DHT22;7538;53.626;9.906;2022-08-07T16:55:51;23.30;57.00
14893;DHT22;7538;53.626;9.906;2022-08-07T17:00:59;23.40;56.00
14893;DHT22;7538;53.626;9.906;2022-08-07T17:03:42;22.40;56.40
14893;DHT22;7538;53.626;9.906;2022-08-07T17:06:30;23.40;56.80
14893;DHT22;7538;53.626;9.906;2022-08-07T17:09:10;23.30;57.00
14893;DHT22;7538;53.626;9.906;2022-08-07T17:11:45;23.30;57.40
14893;DHT22;7538;53.626;9.906;2022-08-07T17:16:46;23.20;58.20
14893;DHT22;7538;53.626;9.906;2022-08-07T17:19:21;23.10;58.00
14893;DHT22;7538;53.626;9.906;2022-08-07T17:21:51;23.10;58.30
14893;DHT22;7538;53.626;9.906;2022-08-07T17:26:58;23.10;59.50
14893;DHT22;7538;53.626;9.906;2022-08-07T17:29:38;23.10;59.00
14893;DHT22;7538;53.626;9.906;2022-08-07T17:32:20;23.10;59.00
14893;DHT22;7538;53.626;9.906;2022-08-07T17:42:30;22.80;60.20
14893;DHT22;7538;53.626;9.906;2022-08-07T17:47:35;22.60;61.40
14893;DHT22;7538;53.626;9.906;2022-08-07T17:50:11;22.50;62.80
14893;DHT22;7538;53.626;9.906;2022-08-07T17:52:45;22.50;63.30
14893;DHT22;7538;53.626;9.906;2022-08-07T17:55:15;22.40;63.70
14893;DHT22;7538;53.626;9.906;2022-08-07T17:57:49;22.30;64.60
14893;DHT22;7538;53.626;9.906;2022-08-07T18:00:24;22.30;65.00
14893;DHT22;7538;53.626;9.906;2022-08-07T18:02:56;22.10;65.60
14893;DHT22;7538;53.626;9.906;2022-08-07T18:05:28;22.10;65.90
14893;DHT22;7538;53.626;9.906;2022-08-07T18:08:04;22.10;66.70
14893;DHT22;7538;53.626;9.906;2022-08-07T18:10:42;22.10;67.20
14893;DHT22;7538;53.626;9.906;2022-08-07T18:13:12;22.00;67.40
14893;DHT22;7538;53.626;9.906;2022-08-07T18:15:53;22.00;68.30
14893;DHT22;7538;53.626;9.906;2022-08-07T18:18:25;21.90;69.10
14893;DHT22;7538;53.626;9.906;2022-08-07T18:20:59;21.90;69.70
14893;DHT22;7538;53.626;9.906;2022-08-07T18:23:38;21.80;70.80
14893;DHT22;7538;53.626;9.906;2022-08-07T18:26:12;21.80;71.10
14893;DHT22;7538;53.626;9.906;2022-08-07T18:28:54;21.80;71.70
14893;DHT22;7538;53.626;9.906;2022-08-07T18:31:39;21.70;73.20
14893;DHT22;7538;53.626;9.906;2022-08-07T18:34:18;21.70;74.10
14893;DHT22;7538;53.626;9.906;2022-08-07T18:37:04;21.60;75.20
14893;DHT22;7538;53.626;9.906;2022-08-07T18:39:50;21.50;77.10
14893;DHT22;7538;53.626;9.906;2022-08-07T18:42:26;21.50;77.60
14893;DHT22;7538;53.626;9.906;2022-08-07T18:45:01;21.50;78.80
14893;DHT22;7538;53.626;9.906;2022-08-07T18:47:36;21.40;80.00
14893;DHT22;7538;53.626;9.906;2022-08-07T18:50:12;21.30;81.20
14893;DHT22;7538;53.626;9.906;2022-08-07T18:52:58;21.30;82.40
14893;DHT22;7538;53.626;9.906;2022-08-07T18:55:34;21.20;83.80
14893;DHT22;7538;53.626;9.906;2022-08-07T19:01:15;21.10;86.60
14893;DHT22;7538;53.626;9.906;2022-08-07T19:03:52;21.00;87.10
14893;DHT22;7538;53.626;9.906;2022-08-07T19:06:29;20.90;89.40
14893;DHT22;7538;53.626;9.906;2022-08-07T19:09:03;20.90;89.80
14893;DHT22;7538;53.626;9.906;2022-08-07T19:11:43;20.80;90.80
14893;DHT22;7538;53.626;9.906;2022-08-07T19:14:15;20.70;90.80
14893;DHT22;7538;53.626;9.906;2022-08-07T19:16:45;20.70;91.40
14893;DHT22;7538;53.626;9.906;2022-08-07T19:19:28;20.60;92.10
14893;DHT22;7538;53.626;9.906;2022-08-07T19:24:35;20.40;93.20
14893;DHT22;7538;53.626;9.906;2022-08-07T19:27:06;20.30;93.70
14893;DHT22;7538;53.626;9.906;2022-08-07T19:32:07;20.20;94.50
14893;DHT22;7538;53.626;9.906;2022-08-07T19:34:36;15.60;93.80
14893;DHT22;7538;53.626;9.906;2022-08-07T19:42:08;19.90;96.60
14893;DHT22;7538;53.626;9.906;2022-08-07T19:47:09;19.70;97.40
14893;DHT22;7538;53.626;9.906;2022-08-07T19:49:42;19.70;97.90
14893;DHT22;7538;53.626;9.906;2022-08-07T19:54:41;19.50;98.80
14893;DHT22;7538;53.626;9.906;2022-08-07T19:59:40;19.30;99.40
14893;DHT22;7538;53.626;9.906;2022-08-07T20:02:10;19.30;99.90
14893;DHT22;7538;53.626;9.906;2022-08-07T20:04:41;19.20;99.90
14893;DHT22;7538;53.626;9.906;2022-08-07T20:09:42;19.00;99.90
14893;DHT22;7538;53.626;9.906;2022-08-07T20:14:45;18.90;99.90
14893;DHT22;7538;53.626;9.906;2022-08-07T20:22:14;18.70;99.90
14893;DHT22;7538;53.626;9.906;2022-08-07T20:24:50;18.60;99.90
14893;DHT22;7538;53.626;9.906;2022-08-07T20:27:21;18.60;99.90
14893;DHT22;7538;53.626;9.906;2022-08-07T20:29:53;18.50;99.90
14893;DHT22;7538;53.626;9.906;2022-08-07T20:37:24;18.40;99.90
14893;DHT22;7538;53.626;9.906;2022-08-07T20:39:53;18.30;99.90
14893;DHT22;7538;53.626;9.906;2022-08-07T20:52:21;18.00;99.90
14893;DHT22;7538;53.626;9.906;2022-08-07T20:54:49;18.00;99.90
14893;DHT22;7538;53.626;9.906;2022-08-07T20:57:18;19.70;99.90
14893;DHT22;7538;53.626;9.906;2022-08-07T21:07:26;17.80;99.90
14893;DHT22;7538;53.626;9.906;2022-08-07T21:17:23;17.60;99.90
14893;DHT22;7538;53.626;9.906;2022-08-07T21:24:54;17.40;99.90
14893;DHT22;7538;53.626;9.906;2022-08-07T21:27:43;17.40;99.90
14893;DHT22;7538;53.626;9.906;2022-08-07T21:30:15;17.30;99.90
14893;DHT22;7538;53.626;9.906;2022-08-07T21:37:55;17.20;99.90
14893;DHT22;7538;53.626;9.906;2022-08-07T21:42:57;17.00;99.90
14893;DHT22;7538;53.626;9.906;2022-08-07T21:48:02;17.00;99.90
14893;DHT22;7538;53.626;9.906;2022-08-07T21:58:07;16.80;99.90
14893;DHT22;7538;53.626;9.906;2022-08-07T22:00:36;16.80;99.90
14893;DHT22;7538;53.626;9.906;2022-08-07T22:03:14;16.80;99.90
14893;DHT22;7538;53.626;9.906;2022-08-07T22:15:46;16.60;99.90
14893;DHT22;7538;53.626;9.906;2022-08-07T22:20:52;16.60;99.90
14893;DHT22;7538;53.626;9.906;2022-08-07T22:25:57;16.50;99.90
14893;DHT22;7538;53.626;9.906;2022-08-07T22:28:32;16.50;99.90
14893;DHT22;7538;53.626;9.906;2022-08-07T22:31:08;16.40;99.90
14893;DHT22;7538;53.626;9.906;2022-08-07T22:33:42;16.40;99.90
14893;DHT22;7538;53.626;9.906;2022-08-07T22:36:24;16.30;99.90
14893;DHT22;7538;53.626;9.906;2022-08-07T22:38:55;16.30;99.90
14893;DHT22;7538;53.626;9.906;2022-08-07T22:41:29;16.20;99.90
14893;DHT22;7538;53.626;9.906;2022-08-07T22:44:03;16.20;99.90
14893;DHT22;7538;53.626;9.906;2022-08-07T22:49:47;16.10;99.90
14893;DHT22;7538;53.626;9.906;2022-08-07T22:54:58;16.00;99.90
14893;DHT22;7538;53.626;9.906;2022-08-07T22:57:43;15.90;99.90
14893;DHT22;7538;53.626;9.906;2022-08-07T23:00:19;15.90;99.90
14893;DHT22;7538;53.626;9.906;2022-08-07T23:02:56;15.80;99.90
14893;DHT22;7538;53.626;9.906;2022-08-07T23:05:44;15.80;99.90
14893;DHT22;7538;53.626;9.906;2022-08-07T23:08:47;15.80;99.90
14893;DHT22;7538;53.626;9.906;2022-08-07T23:11:33;15.70;99.90
14893;DHT22;7538;53.626;9.906;2022-08-07T23:14:21;15.70;99.90
14893;DHT22;7538;53.626;9.906;2022-08-07T23:17:07;15.60;99.90
14893;DHT22;7538;53.626;9.906;2022-08-07T23:19:43;15.60;99.90
14893;DHT22;7538;53.626;9.906;2022-08-07T23:22:38;15.50;99.90
14893;DHT22;7538;53.626;9.906;2022-08-07T23:25:16;15.50;99.90
14893;DHT22;7538;53.626;9.906;2022-08-07T23:28:01;15.50;99.90
14893;DHT22;7538;53.626;9.906;2022-08-07T23:30:36;15.40;99.90
14893;DHT22;7538;53.626;9.906;2022-08-07T23:33:29;15.40;99.90
14893;DHT22;7538;53.626;9.906;2022-08-07T23:36:09;15.40;99.90
14893;DHT22;7538;53.626;9.906;2022-08-07T23:38:52;15.30;99.90
14893;DHT22;7538;53.626;9.906;2022-08-07T23:41:37;15.30;99.90
14893;DHT22;7538;53.626;9.906;2022-08-07T23:47:39;15.20;99.90
14893;DHT22;7538;53.626;9.906;2022-08-07T23:50:25;15.20;99.90
14893;DHT22;7538;53.626;9.906;2022-08-07T23:55:31;15.20;99.90
14893;DHT22;7538;53.626;9.906;2022-08-07T23:58:08;15.10;99.90
